createdAt,value
2022-11-16T00:00:06.835Z,1009
2022-11-16T00:01:02.622Z,1009
2022-11-16T00:02:01.975Z,1009
2022-11-16T00:03:01.765Z,1008.9
2022-11-16T00:04:01.836Z,1008.9
2022-11-16T00:05:02.806Z,1008.9
2022-11-16T00:06:02.843Z,1008.9
2022-11-16T00:07:03.136Z,1008.9
2022-11-16T00:08:01.955Z,1008.9
2022-11-16T00:09:02.023Z,1008.9
2022-11-16T00:10:01.942Z,1008.9
2022-11-16T00:11:01.967Z,1008.9
2022-11-16T00:12:01.923Z,1008.9
2022-11-16T00:13:01.981Z,1008.9
2022-11-16T00:14:01.865Z,1008.8
2022-11-16T00:15:01.908Z,1008.9
2022-11-16T00:16:01.808Z,1008.8
2022-11-16T00:17:01.796Z,1008.8
2022-11-16T00:18:01.831Z,1008.9
2022-11-16T00:19:02.805Z,1008.8
2022-11-16T00:20:02.734Z,1008.8
2022-11-16T00:21:02.827Z,1008.8
2022-11-16T00:22:02.701Z,1008.7
2022-11-16T00:23:01.937Z,1008.7
2022-11-16T00:24:01.884Z,1008.7
2022-11-16T00:25:01.815Z,1008.8
2022-11-16T00:26:01.760Z,1008.8
2022-11-16T00:27:02.837Z,1008.8
2022-11-16T00:28:02.726Z,1008.8
2022-11-16T00:29:02.765Z,1008.8
2022-11-16T00:30:02.776Z,1008.8
2022-11-16T00:31:02.730Z,1008.8
2022-11-16T00:32:02.234Z,1008.8
2022-11-16T00:33:02.299Z,1008.8
2022-11-16T00:34:02.150Z,1008.8
2022-11-16T00:35:02.201Z,1008.8
2022-11-16T00:36:02.082Z,1008.8
2022-11-16T00:37:02.121Z,1008.8
2022-11-16T00:38:01.998Z,1008.8
2022-11-16T00:39:02.052Z,1008.9
2022-11-16T00:40:01.932Z,1008.8
2022-11-16T00:41:01.998Z,1008.9
2022-11-16T00:42:01.901Z,1008.9
2022-11-16T00:43:02.024Z,1008.9
2022-11-16T00:44:01.811Z,1008.9
2022-11-16T00:45:01.891Z,1008.9
2022-11-16T00:46:01.813Z,1008.8
2022-11-16T00:47:02.438Z,1008.8
2022-11-16T00:48:02.461Z,1008.8
2022-11-16T00:49:02.480Z,1008.8
2022-11-16T00:50:02.314Z,1008.8
2022-11-16T00:51:02.300Z,1008.8
2022-11-16T00:52:02.301Z,1008.8
2022-11-16T00:53:02.158Z,1008.8
2022-11-16T00:54:02.216Z,1008.8
2022-11-16T00:55:02.077Z,1008.8
2022-11-16T00:56:02.113Z,1008.7
2022-11-16T00:57:02.002Z,1008.8
2022-11-16T00:58:02.004Z,1008.8
2022-11-16T00:59:01.919Z,1008.8
2022-11-16T01:00:01.987Z,1008.7
2022-11-16T01:01:02.183Z,1008.7
2022-11-16T01:02:02.101Z,1008.7
2022-11-16T01:03:02.105Z,1008.8
2022-11-16T01:04:02.042Z,1008.7
2022-11-16T01:05:02.157Z,1008.7
2022-11-16T01:06:01.929Z,1008.7
2022-11-16T01:07:02.206Z,1008.7
2022-11-16T01:08:02.000Z,1008.7
2022-11-16T01:09:02.088Z,1008.6
2022-11-16T01:10:01.922Z,1008.6
2022-11-16T01:11:01.946Z,1008.6
2022-11-16T01:12:01.786Z,1008.6
2022-11-16T01:13:01.968Z,1008.6
2022-11-16T01:14:01.729Z,1008.5
2022-11-16T01:15:02.794Z,1008.5
2022-11-16T01:16:02.662Z,1008.5
2022-11-16T01:17:02.642Z,1008.5
2022-11-16T01:18:02.720Z,1008.4
2022-11-16T01:19:03.340Z,1008.5
2022-11-16T01:20:02.192Z,1008.4
2022-11-16T01:21:02.330Z,1008.5
2022-11-16T01:22:02.242Z,1008.4
2022-11-16T01:23:02.216Z,1008.4
2022-11-16T01:24:02.428Z,1008.4
2022-11-16T01:25:02.369Z,1008.3
2022-11-16T01:26:02.295Z,1008.4
2022-11-16T01:27:02.313Z,1008.4
2022-11-16T01:28:02.268Z,1008.3
2022-11-16T01:29:02.181Z,1008.4
2022-11-16T01:30:02.269Z,1008.3
2022-11-16T01:31:02.084Z,1008.3
2022-11-16T01:32:02.038Z,1008.3
2022-11-16T01:33:02.149Z,1008.3
2022-11-16T01:34:02.009Z,1008.2
2022-11-16T01:35:02.035Z,1008.3
2022-11-16T01:36:01.894Z,1008.2
2022-11-16T01:37:02.005Z,1008.2
2022-11-16T01:38:01.939Z,1008.3
2022-11-16T01:39:01.998Z,1008.2
2022-11-16T01:40:01.810Z,1008.2
2022-11-16T01:41:01.863Z,1008.2
2022-11-16T01:42:02.839Z,1008.2
2022-11-16T01:43:02.683Z,1008.1
2022-11-16T01:44:02.829Z,1008.1
2022-11-16T01:45:02.731Z,1008.1
2022-11-16T01:46:02.799Z,1008.1
2022-11-16T01:47:02.355Z,1008.1
2022-11-16T01:48:02.536Z,1008.1
2022-11-16T01:49:02.447Z,1008.1
2022-11-16T01:50:02.301Z,1008.1
2022-11-16T01:51:02.427Z,1008.1
2022-11-16T01:52:02.371Z,1008.1
2022-11-16T01:53:02.322Z,1008.1
2022-11-16T01:54:02.331Z,1008.1
2022-11-16T01:55:02.398Z,1008
2022-11-16T01:56:02.270Z,1008
2022-11-16T01:57:02.357Z,1008
2022-11-16T01:58:02.304Z,1008
2022-11-16T01:59:02.189Z,1008
2022-11-16T02:00:02.167Z,1008
2022-11-16T02:01:02.271Z,1008
2022-11-16T02:02:02.125Z,1008
2022-11-16T02:03:02.166Z,1008
2022-11-16T02:04:02.030Z,1008
2022-11-16T02:05:02.085Z,1008
2022-11-16T02:06:01.948Z,1008
2022-11-16T02:07:02.312Z,1008
2022-11-16T02:08:02.153Z,1008
2022-11-16T02:09:02.186Z,1008
2022-11-16T02:10:02.060Z,1008
2022-11-16T02:11:02.155Z,1008
2022-11-16T02:12:02.080Z,1008
2022-11-16T02:13:02.198Z,1008
2022-11-16T02:14:02.044Z,1007.9
2022-11-16T02:15:02.215Z,1007.9
2022-11-16T02:16:01.995Z,1008
2022-11-16T02:17:01.931Z,1007.9
2022-11-16T02:18:02.062Z,1007.9
2022-11-16T02:19:01.821Z,1007.9
2022-11-16T02:20:01.936Z,1007.9
2022-11-16T02:21:03.405Z,1007.8
2022-11-16T02:22:02.241Z,1007.8
2022-11-16T02:23:02.682Z,1007.8
2022-11-16T02:24:02.559Z,1007.8
2022-11-16T02:25:02.673Z,1007.8
2022-11-16T02:26:02.479Z,1007.7
2022-11-16T02:27:02.616Z,1007.7
2022-11-16T02:28:02.565Z,1007.8
2022-11-16T02:29:02.511Z,1007.7
2022-11-16T02:30:02.640Z,1007.7
2022-11-16T02:31:02.427Z,1007.7
2022-11-16T02:32:02.480Z,1007.8
2022-11-16T02:33:02.585Z,1007.8
2022-11-16T02:34:02.583Z,1007.7
2022-11-16T02:35:02.373Z,1007.7
2022-11-16T02:36:02.486Z,1007.7
2022-11-16T02:37:02.408Z,1007.7
2022-11-16T02:38:02.315Z,1007.6
2022-11-16T02:39:02.510Z,1007.7
2022-11-16T02:40:02.458Z,1007.6
2022-11-16T02:41:02.258Z,1007.6
2022-11-16T02:42:02.311Z,1007.7
2022-11-16T02:43:02.366Z,1007.6
2022-11-16T02:44:02.295Z,1007.6
2022-11-16T02:45:02.235Z,1007.6
2022-11-16T02:46:02.124Z,1007.7
2022-11-16T02:47:02.157Z,1007.6
2022-11-16T02:48:02.626Z,1007.6
2022-11-16T02:49:02.567Z,1007.6
2022-11-16T02:50:02.595Z,1007.6
2022-11-16T02:51:02.614Z,1007.6
2022-11-16T02:52:02.531Z,1007.6
2022-11-16T02:53:02.693Z,1007.7
2022-11-16T02:54:02.523Z,1007.6
2022-11-16T02:55:02.630Z,1007.6
2022-11-16T02:56:02.447Z,1007.6
2022-11-16T02:57:02.708Z,1007.6
2022-11-16T02:58:02.484Z,1007.6
2022-11-16T02:59:02.605Z,1007.6
2022-11-16T03:00:02.477Z,1007.6
2022-11-16T03:01:02.834Z,1007.6
2022-11-16T03:02:02.648Z,1007.6
2022-11-16T03:03:02.686Z,1007.6
2022-11-16T03:04:02.553Z,1007.7
2022-11-16T03:05:02.630Z,1007.7
2022-11-16T03:06:02.497Z,1007.7
2022-11-16T03:07:02.811Z,1007.6
2022-11-16T03:08:02.612Z,1007.6
2022-11-16T03:09:02.811Z,1007.7
2022-11-16T03:10:02.606Z,1007.7
2022-11-16T03:11:02.854Z,1007.7
2022-11-16T03:12:02.610Z,1007.7
2022-11-16T03:13:02.789Z,1007.6
2022-11-16T03:14:02.582Z,1007.7
2022-11-16T03:15:02.792Z,1007.7
2022-11-16T03:16:02.733Z,1007.6
2022-11-16T03:17:02.650Z,1007.6
2022-11-16T03:18:02.770Z,1007.6
2022-11-16T03:19:02.650Z,1007.6
2022-11-16T03:20:02.614Z,1007.6
2022-11-16T03:21:02.575Z,1007.6
2022-11-16T03:22:02.672Z,1007.6
2022-11-16T03:23:02.569Z,1007.6
2022-11-16T03:24:01.835Z,1007.6
2022-11-16T03:25:01.779Z,1007.6
2022-11-16T03:26:02.894Z,1007.5
2022-11-16T03:27:02.701Z,1007.6
2022-11-16T03:28:02.720Z,1007.6
2022-11-16T03:29:02.652Z,1007.5
2022-11-16T03:30:02.765Z,1007.6
2022-11-16T03:31:02.553Z,1007.5
2022-11-16T03:32:02.541Z,1007.5
2022-11-16T03:33:02.692Z,1007.5
2022-11-16T03:34:02.514Z,1007.5
2022-11-16T03:35:02.612Z,1007.5
2022-11-16T03:36:02.435Z,1007.5
2022-11-16T03:37:02.521Z,1007.6
2022-11-16T03:38:02.515Z,1007.5
2022-11-16T03:39:02.424Z,1007.5
2022-11-16T03:40:02.627Z,1007.5
2022-11-16T03:41:02.478Z,1007.5
2022-11-16T03:42:02.522Z,1007.4
2022-11-16T03:43:02.521Z,1007.4
2022-11-16T03:44:02.345Z,1007.4
2022-11-16T03:45:02.588Z,1007.4
2022-11-16T03:46:02.575Z,1007.3
2022-11-16T03:47:02.279Z,1007.3
2022-11-16T03:48:02.402Z,1007.3
2022-11-16T03:49:02.681Z,1007.3
2022-11-16T03:50:02.457Z,1007.4
2022-11-16T03:51:02.581Z,1007.3
2022-11-16T03:52:02.622Z,1007.2
2022-11-16T03:53:02.375Z,1007.2
2022-11-16T03:54:02.586Z,1007.2
2022-11-16T03:55:02.351Z,1007.2
2022-11-16T03:56:02.400Z,1007.2
2022-11-16T03:57:02.425Z,1007.2
2022-11-16T03:58:02.324Z,1007.2
2022-11-16T03:59:02.342Z,1007.1
2022-11-16T04:00:02.354Z,1007.2
2022-11-16T04:01:02.576Z,1007.2
2022-11-16T04:02:02.258Z,1007.1
2022-11-16T04:03:02.317Z,1007.1
2022-11-16T04:04:02.284Z,1007.1
2022-11-16T04:05:02.160Z,1007.1
2022-11-16T04:06:02.238Z,1007.1
2022-11-16T04:07:02.393Z,1007.1
2022-11-16T04:08:02.252Z,1007
2022-11-16T04:09:02.242Z,1007.1
2022-11-16T04:10:02.132Z,1007.1
2022-11-16T04:11:02.209Z,1007
2022-11-16T04:12:02.037Z,1007
2022-11-16T04:13:02.032Z,1007
2022-11-16T04:14:09.522Z,1007
2022-11-16T04:15:02.325Z,1007
2022-11-16T04:16:02.308Z,1007
2022-11-16T04:17:02.272Z,1007
2022-11-16T04:18:02.151Z,1007
2022-11-16T04:19:02.234Z,1006.9
2022-11-16T04:20:02.004Z,1006.9
2022-11-16T04:21:02.025Z,1006.9
2022-11-16T04:22:01.897Z,1006.9
2022-11-16T04:23:01.930Z,1006.9
2022-11-16T04:24:01.972Z,1006.9
2022-11-16T04:25:01.923Z,1006.9
2022-11-16T04:26:01.766Z,1006.9
2022-11-16T04:27:01.826Z,1006.9
2022-11-16T04:28:02.781Z,1006.9
2022-11-16T04:29:02.683Z,1006.8
2022-11-16T04:30:02.766Z,1006.8
2022-11-16T04:31:02.644Z,1006.9
2022-11-16T04:32:02.599Z,1006.9
2022-11-16T04:33:02.662Z,1006.8
2022-11-16T04:34:02.567Z,1006.9
2022-11-16T04:35:02.718Z,1006.8
2022-11-16T04:36:02.633Z,1006.8
2022-11-16T04:37:02.627Z,1006.8
2022-11-16T04:38:02.468Z,1006.8
2022-11-16T04:39:02.494Z,1006.7
2022-11-16T04:40:02.496Z,1006.7
2022-11-16T04:41:02.380Z,1006.8
2022-11-16T04:42:02.425Z,1006.8
2022-11-16T04:43:02.376Z,1006.8
2022-11-16T04:44:02.233Z,1006.7
2022-11-16T04:45:02.273Z,1006.7
2022-11-16T04:46:02.110Z,1006.7
2022-11-16T04:47:02.360Z,1006.7
2022-11-16T04:48:02.250Z,1006.6
2022-11-16T04:49:02.269Z,1006.6
2022-11-16T04:50:02.123Z,1006.6
2022-11-16T04:51:02.280Z,1006.6
2022-11-16T04:52:02.133Z,1006.6
2022-11-16T04:53:02.216Z,1006.6
2022-11-16T04:54:02.084Z,1006.6
2022-11-16T04:55:02.198Z,1006.6
2022-11-16T04:56:02.015Z,1006.6
2022-11-16T04:57:02.120Z,1006.6
2022-11-16T04:58:01.952Z,1006.6
2022-11-16T04:59:02.200Z,1006.5
2022-11-16T05:00:01.992Z,1006.5
2022-11-16T05:01:02.121Z,1006.5
2022-11-16T05:02:01.893Z,1006.4
2022-11-16T05:03:02.474Z,1006.5
2022-11-16T05:04:02.369Z,1006.5
2022-11-16T05:05:02.228Z,1006.4
2022-11-16T05:06:02.305Z,1006.4
2022-11-16T05:07:02.433Z,1006.4
2022-11-16T05:08:02.216Z,1006.4
2022-11-16T05:09:02.260Z,1006.4
2022-11-16T05:10:02.275Z,1006.4
2022-11-16T05:11:02.084Z,1006.4
2022-11-16T05:12:02.147Z,1006.5
2022-11-16T05:13:02.012Z,1006.5
2022-11-16T05:14:02.091Z,1006.6
2022-11-16T05:15:01.954Z,1006.5
2022-11-16T05:16:01.955Z,1006.5
2022-11-16T05:17:01.751Z,1006.5
2022-11-16T05:18:02.963Z,1006.5
2022-11-16T05:19:03.022Z,1006.5
2022-11-16T05:20:01.830Z,1006.6
2022-11-16T05:21:01.789Z,1006.5
2022-11-16T05:22:02.827Z,1006.5
2022-11-16T05:23:02.747Z,1006.5
2022-11-16T05:24:02.807Z,1006.5
2022-11-16T05:25:02.727Z,1006.5
2022-11-16T05:26:02.809Z,1006.5
2022-11-16T05:27:02.678Z,1006.5
2022-11-16T05:28:02.667Z,1006.4
2022-11-16T05:29:02.621Z,1006.4
2022-11-16T05:30:02.723Z,1006.4
2022-11-16T05:31:02.619Z,1006.4
2022-11-16T05:32:02.341Z,1006.4
2022-11-16T05:33:02.411Z,1006.4
2022-11-16T05:34:02.387Z,1006.4
2022-11-16T05:35:02.255Z,1006.3
2022-11-16T05:36:02.292Z,1006.4
2022-11-16T05:37:02.221Z,1006.3
2022-11-16T05:38:02.177Z,1006.3
2022-11-16T05:39:02.278Z,1006.3
2022-11-16T05:40:02.259Z,1006.4
2022-11-16T05:41:02.066Z,1006.4
2022-11-16T05:42:02.105Z,1006.3
2022-11-16T05:43:02.004Z,1006.3
2022-11-16T05:44:02.022Z,1006.4
2022-11-16T05:45:01.904Z,1006.3
2022-11-16T05:46:01.966Z,1006.3
2022-11-16T05:47:01.856Z,1006.3
2022-11-16T05:48:01.888Z,1006.3
2022-11-16T05:49:01.769Z,1006.3
2022-11-16T05:50:02.831Z,1006.4
2022-11-16T05:51:02.730Z,1006.3
2022-11-16T05:52:02.805Z,1006.3
2022-11-16T05:53:02.688Z,1006.3
2022-11-16T05:54:02.775Z,1006.3
2022-11-16T05:55:02.704Z,1006.3
2022-11-16T05:56:03.093Z,1006.3
2022-11-16T05:57:01.935Z,1006.3
2022-11-16T05:58:02.017Z,1006.4
2022-11-16T05:59:01.856Z,1006.3
2022-11-16T06:00:01.924Z,1006.4
2022-11-16T06:01:01.741Z,1006.4
2022-11-16T06:02:02.741Z,1006.4
2022-11-16T06:03:02.965Z,1006.4
2022-11-16T06:04:01.810Z,1006.4
2022-11-16T06:05:01.828Z,1006.4
2022-11-16T06:06:03.199Z,1006.4
2022-11-16T06:07:02.319Z,1006.4
2022-11-16T06:08:02.165Z,1006.4
2022-11-16T06:09:02.284Z,1006.3
2022-11-16T06:10:02.102Z,1006.3
2022-11-16T06:11:02.138Z,1006.3
2022-11-16T06:12:02.018Z,1006.3
2022-11-16T06:13:02.078Z,1006.3
2022-11-16T06:14:02.008Z,1006.3
2022-11-16T06:15:02.032Z,1006.3
2022-11-16T06:16:01.855Z,1006.3
2022-11-16T06:17:01.829Z,1006.3
2022-11-16T06:18:01.944Z,1006.3
2022-11-16T06:19:01.907Z,1006.3
2022-11-16T06:20:01.865Z,1006.3
2022-11-16T06:21:02.745Z,1006.3
2022-11-16T06:22:02.665Z,1006.3
2022-11-16T06:23:02.749Z,1006.3
2022-11-16T06:24:02.736Z,1006.3
2022-11-16T06:25:02.711Z,1006.3
2022-11-16T06:26:02.659Z,1006.3
2022-11-16T06:27:02.662Z,1006.3
2022-11-16T06:28:08.738Z,1006.3
2022-11-16T06:29:02.528Z,1006.3
2022-11-16T06:30:02.561Z,1006.3
2022-11-16T06:31:02.525Z,1006.3
2022-11-16T06:32:02.316Z,1006.3
2022-11-16T06:33:02.376Z,1006.3
2022-11-16T06:34:02.390Z,1006.3
2022-11-16T06:35:02.224Z,1006.3
2022-11-16T06:36:02.237Z,1006.3
2022-11-16T06:37:02.042Z,1006.3
2022-11-16T06:38:02.123Z,1006.3
2022-11-16T06:39:01.995Z,1006.3
2022-11-16T06:40:02.015Z,1006.3
2022-11-16T06:41:02.803Z,1006.3
2022-11-16T06:42:04.921Z,1006.3
2022-11-16T06:43:02.646Z,1006.3
2022-11-16T06:44:02.663Z,1006.3
2022-11-16T06:45:02.693Z,1006.3
2022-11-16T06:46:02.725Z,1006.3
2022-11-16T06:47:02.498Z,1006.3
2022-11-16T06:48:02.478Z,1006.3
2022-11-16T06:49:02.453Z,1006.3
2022-11-16T06:50:02.397Z,1006.3
2022-11-16T06:51:02.434Z,1006.3
2022-11-16T06:52:02.408Z,1006.3
2022-11-16T06:53:02.381Z,1006.3
2022-11-16T06:54:02.372Z,1006.3
2022-11-16T06:55:02.315Z,1006.3
2022-11-16T06:56:02.300Z,1006.3
2022-11-16T06:57:02.269Z,1006.3
2022-11-16T06:58:02.244Z,1006.3
2022-11-16T06:59:02.202Z,1006.3
2022-11-16T07:00:02.123Z,1006.3
2022-11-16T07:01:02.061Z,1006.3
2022-11-16T07:02:02.224Z,1006.3
2022-11-16T07:03:02.057Z,1006.3
2022-11-16T07:04:01.988Z,1006.3
2022-11-16T07:05:04.579Z,1006.3
2022-11-16T07:06:02.383Z,1006.3
2022-11-16T07:07:02.481Z,1006.3
2022-11-16T07:08:02.373Z,1006.3
2022-11-16T07:09:02.324Z,1006.3
2022-11-16T07:10:02.298Z,1006.3
2022-11-16T07:11:04.816Z,1006.3
2022-11-16T07:12:02.588Z,1006.3
2022-11-16T07:13:02.594Z,1006.2
2022-11-16T07:14:02.506Z,1006.2
2022-11-16T07:15:02.497Z,1006.3
2022-11-16T07:16:02.410Z,1006.2
2022-11-16T07:17:10.007Z,1006.3
2022-11-16T07:18:01.805Z,1006.3
2022-11-16T07:19:01.758Z,1006.2
2022-11-16T07:20:02.730Z,1006.2
2022-11-16T07:21:02.704Z,1006.2
2022-11-16T07:22:02.658Z,1006.2
2022-11-16T07:23:02.611Z,1006.2
2022-11-16T07:24:02.607Z,1006.2
2022-11-16T07:25:02.609Z,1006.2
2022-11-16T07:26:02.544Z,1006.2
2022-11-16T07:27:02.494Z,1006.1
2022-11-16T07:28:02.452Z,1006.1
2022-11-16T07:29:02.450Z,1006.1
2022-11-16T07:30:02.588Z,1006.1
2022-11-16T07:31:02.458Z,1006.1
2022-11-16T07:32:02.126Z,1006.1
2022-11-16T07:33:02.091Z,1006.1
2022-11-16T07:34:02.069Z,1006.1
2022-11-16T07:35:01.965Z,1006.1
2022-11-16T07:36:01.928Z,1006
2022-11-16T07:37:01.885Z,1006.1
2022-11-16T07:38:01.838Z,1006.1
2022-11-16T07:39:01.764Z,1006
2022-11-16T07:40:02.748Z,1006
2022-11-16T07:41:02.733Z,1006
2022-11-16T07:42:02.656Z,1006.1
2022-11-16T07:43:02.631Z,1006
2022-11-16T07:44:02.693Z,1006
2022-11-16T07:45:02.580Z,1006
2022-11-16T07:46:49.050Z,1006
2022-11-16T07:47:01.938Z,1006
2022-11-16T07:48:01.879Z,1005.9
2022-11-16T07:49:01.840Z,1005.9
2022-11-16T07:50:01.824Z,1006
2022-11-16T07:51:01.760Z,1005.9
2022-11-16T07:52:02.697Z,1006
2022-11-16T07:53:02.680Z,1006
2022-11-16T07:54:02.639Z,1005.9
2022-11-16T07:55:02.665Z,1005.9
2022-11-16T07:56:02.649Z,1005.9
2022-11-16T07:57:02.583Z,1005.9
2022-11-16T07:58:02.559Z,1005.9
2022-11-16T07:59:02.531Z,1005.9
2022-11-16T08:00:02.547Z,1005.9
2022-11-16T08:01:02.414Z,1005.9
2022-11-16T08:02:02.562Z,1005.9
2022-11-16T08:03:02.408Z,1005.9
2022-11-16T08:04:02.344Z,1005.9
2022-11-16T08:05:02.322Z,1005.9
2022-11-16T08:06:02.226Z,1005.9
2022-11-16T08:07:02.354Z,1005.9
2022-11-16T08:08:02.169Z,1005.9
2022-11-16T08:09:02.116Z,1005.9
2022-11-16T08:10:02.372Z,1005.9
2022-11-16T08:11:02.192Z,1005.9
2022-11-16T08:12:02.135Z,1005.9
2022-11-16T08:13:02.113Z,1005.9
2022-11-16T08:14:02.075Z,1005.9
2022-11-16T08:15:02.002Z,1005.9
2022-11-16T08:16:01.961Z,1005.9
2022-11-16T08:17:02.756Z,1005.9
2022-11-16T08:18:02.754Z,1005.9
2022-11-16T08:19:01.780Z,1005.8
2022-11-16T08:20:02.748Z,1005.8
2022-11-16T08:21:01.925Z,1005.8
2022-11-16T08:22:01.897Z,1005.8
2022-11-16T08:23:01.786Z,1005.8
2022-11-16T08:24:02.725Z,1005.8
2022-11-16T08:25:02.690Z,1005.8
2022-11-16T08:26:02.746Z,1005.8
2022-11-16T08:27:02.667Z,1005.7
2022-11-16T08:28:02.738Z,1005.7
2022-11-16T08:29:02.646Z,1005.8
2022-11-16T08:30:02.626Z,1005.8
2022-11-16T08:31:02.633Z,1005.7
2022-11-16T08:32:02.316Z,1005.7
2022-11-16T08:33:02.280Z,1005.7
2022-11-16T08:34:02.278Z,1005.7
2022-11-16T08:35:02.245Z,1005.7
2022-11-16T08:36:02.184Z,1005.7
2022-11-16T08:37:02.136Z,1005.7
2022-11-16T08:38:02.085Z,1005.7
2022-11-16T08:39:02.029Z,1005.8
2022-11-16T08:40:01.953Z,1005.7
2022-11-16T08:41:01.890Z,1005.7
2022-11-16T08:42:01.864Z,1005.7
2022-11-16T08:43:01.841Z,1005.7
2022-11-16T08:44:01.770Z,1005.7
2022-11-16T08:45:01.802Z,1005.7
2022-11-16T08:46:02.841Z,1005.7
2022-11-16T08:47:02.541Z,1005.7
2022-11-16T08:48:04.832Z,1005.7
2022-11-16T08:49:02.618Z,1005.8
2022-11-16T08:50:02.578Z,1005.7
2022-11-16T08:51:19.857Z,1005.8
2022-11-16T08:52:01.946Z,1005.8
2022-11-16T08:53:01.911Z,1005.8
2022-11-16T08:54:01.901Z,1005.7
2022-11-16T08:55:01.823Z,1005.7
2022-11-16T08:56:01.775Z,1005.8
2022-11-16T08:57:02.722Z,1005.8
2022-11-16T08:58:02.719Z,1005.7
2022-11-16T08:59:01.741Z,1005.8
2022-11-16T09:00:02.725Z,1005.8
2022-11-16T09:01:01.751Z,1005.7
2022-11-16T09:02:02.918Z,1005.9
2022-11-16T09:03:02.753Z,1005.8
2022-11-16T09:04:02.729Z,1005.8
2022-11-16T09:05:02.767Z,1005.8
2022-11-16T09:06:02.910Z,1005.8
2022-11-16T09:07:02.275Z,1005.8
2022-11-16T09:08:02.072Z,1005.9
2022-11-16T09:09:02.038Z,1005.8
2022-11-16T09:10:02.063Z,1005.8
2022-11-16T09:11:01.897Z,1005.9
2022-11-16T09:12:01.840Z,1005.8
2022-11-16T09:13:01.804Z,1005.8
2022-11-16T09:14:01.774Z,1005.8
2022-11-16T09:15:02.721Z,1005.8
2022-11-16T09:16:02.739Z,1005.8
2022-11-16T09:17:02.623Z,1005.8
2022-11-16T09:18:02.560Z,1005.8
2022-11-16T09:19:02.571Z,1005.7
2022-11-16T09:20:02.500Z,1005.8
2022-11-16T09:21:02.553Z,1005.8
2022-11-16T09:22:02.514Z,1005.8
2022-11-16T09:23:02.530Z,1005.7
2022-11-16T09:24:02.471Z,1005.7
2022-11-16T09:25:02.456Z,1005.7
2022-11-16T09:26:02.423Z,1005.7
2022-11-16T09:27:02.340Z,1005.7
2022-11-16T09:28:02.287Z,1005.6
2022-11-16T09:29:02.235Z,1005.7
2022-11-16T09:30:02.239Z,1005.7
2022-11-16T09:31:02.188Z,1005.7
2022-11-16T09:32:02.134Z,1005.7
2022-11-16T09:33:02.112Z,1005.6
2022-11-16T09:34:02.094Z,1005.6
2022-11-16T09:35:02.008Z,1005.6
2022-11-16T09:36:01.950Z,1005.6
2022-11-16T09:37:01.915Z,1005.7
2022-11-16T09:38:01.887Z,1005.7
2022-11-16T09:39:32.672Z,1005.6
2022-11-16T09:40:02.493Z,1005.7
2022-11-16T09:41:02.404Z,1005.6
2022-11-16T09:42:02.435Z,1005.6
2022-11-16T09:43:02.412Z,1005.6
2022-11-16T09:44:02.362Z,1005.6
2022-11-16T09:45:02.326Z,1005.6
2022-11-16T09:46:02.250Z,1005.6
2022-11-16T09:47:02.345Z,1005.6
2022-11-16T09:48:02.311Z,1005.6
2022-11-16T09:49:02.215Z,1005.6
2022-11-16T09:50:04.738Z,1005.6
2022-11-16T09:51:02.526Z,1005.6
2022-11-16T09:52:02.490Z,1005.6
2022-11-16T09:53:02.424Z,1005.6
2022-11-16T09:54:02.374Z,1005.5
2022-11-16T09:55:02.317Z,1005.5
2022-11-16T09:56:02.228Z,1005.5
2022-11-16T09:57:02.192Z,1005.5
2022-11-16T09:58:02.174Z,1005.5
2022-11-16T09:59:02.119Z,1005.5
2022-11-16T10:00:02.102Z,1005.4
2022-11-16T10:01:02.171Z,1005.5
2022-11-16T10:02:02.103Z,1005.5
2022-11-16T10:03:01.997Z,1005.5
2022-11-16T10:04:01.962Z,1005.4
2022-11-16T10:05:01.821Z,1005.5
2022-11-16T10:06:01.767Z,1005.5
2022-11-16T10:07:02.950Z,1005.5
2022-11-16T10:08:01.739Z,1005.5
2022-11-16T10:09:02.681Z,1005.5
2022-11-16T10:10:02.743Z,1005.5
2022-11-16T10:11:02.740Z,1005.5
2022-11-16T10:12:02.667Z,1005.5
2022-11-16T10:13:02.654Z,1005.5
2022-11-16T10:14:05.010Z,1005.4
2022-11-16T10:15:01.825Z,1005.5
2022-11-16T10:16:02.680Z,1005.4
2022-11-16T10:17:01.739Z,1005.4
2022-11-16T10:18:02.739Z,1005.4
2022-11-16T10:19:02.733Z,1005.4
2022-11-16T10:20:02.737Z,1005.4
2022-11-16T10:21:02.730Z,1005.4
2022-11-16T10:22:01.788Z,1005.5
2022-11-16T10:23:02.713Z,1005.4
2022-11-16T10:24:02.735Z,1005.4
2022-11-16T10:25:02.699Z,1005.5
2022-11-16T10:26:01.759Z,1005.4
2022-11-16T10:27:03.021Z,1005.4
2022-11-16T10:28:01.776Z,1005.4
2022-11-16T10:29:01.757Z,1005.4
2022-11-16T10:30:02.774Z,1005.4
2022-11-16T10:31:02.732Z,1005.3
2022-11-16T10:32:02.376Z,1005.4
2022-11-16T10:33:11.516Z,1005.4
2022-11-16T10:34:02.417Z,1005.4
2022-11-16T10:35:02.416Z,1005.3
2022-11-16T10:36:02.357Z,1005.3
2022-11-16T10:37:02.325Z,1005.3
2022-11-16T10:38:02.241Z,1005.3
2022-11-16T10:39:02.171Z,1005.3
2022-11-16T10:40:02.138Z,1005.4
2022-11-16T10:41:02.047Z,1005.3
2022-11-16T10:42:08.342Z,1005.3
2022-11-16T10:43:02.134Z,1005.3
2022-11-16T10:44:02.049Z,1005.3
2022-11-16T10:45:02.012Z,1005.3
2022-11-16T10:46:01.978Z,1005.3
2022-11-16T10:47:02.091Z,1005.2
2022-11-16T10:48:02.132Z,1005.2
2022-11-16T10:49:01.981Z,1005.2
2022-11-16T10:50:01.877Z,1005.2
2022-11-16T10:51:01.835Z,1005.2
2022-11-16T10:52:01.754Z,1005.2
2022-11-16T10:53:02.772Z,1005.2
2022-11-16T10:54:02.700Z,1005.2
2022-11-16T10:55:02.634Z,1005.2
2022-11-16T10:56:02.599Z,1005.2
2022-11-16T10:57:02.581Z,1005.2
2022-11-16T10:58:02.504Z,1005.2
2022-11-16T10:59:02.502Z,1005.2
2022-11-16T11:00:02.395Z,1005.2
2022-11-16T11:01:02.464Z,1005.2
2022-11-16T11:02:02.509Z,1005.2
2022-11-16T11:03:02.500Z,1005.1
2022-11-16T11:04:02.420Z,1005.2
2022-11-16T11:05:02.377Z,1005.1
2022-11-16T11:06:02.374Z,1005.1
2022-11-16T11:07:02.452Z,1005.2
2022-11-16T11:08:02.259Z,1005.2
2022-11-16T11:09:02.218Z,1005.1
2022-11-16T11:10:02.206Z,1005.1
2022-11-16T11:11:02.299Z,1005.1
2022-11-16T11:12:02.061Z,1005.1
2022-11-16T11:13:02.043Z,1005.1
2022-11-16T11:14:02.007Z,1005.1
2022-11-16T11:15:01.931Z,1005.1
2022-11-16T11:16:01.897Z,1005.2
2022-11-16T11:17:02.574Z,1005.1
2022-11-16T11:18:02.574Z,1005.1
2022-11-16T11:19:02.526Z,1005.1
2022-11-16T11:20:02.530Z,1005.1
2022-11-16T11:21:02.443Z,1005.1
2022-11-16T11:22:02.424Z,1005.2
2022-11-16T11:23:02.327Z,1005.2
2022-11-16T11:24:45.512Z,1005.1
2022-11-16T11:25:02.399Z,1005.1
2022-11-16T11:26:02.374Z,1005.1
2022-11-16T11:27:02.343Z,1005.1
2022-11-16T11:28:02.248Z,1005.1
2022-11-16T11:29:02.188Z,1005.2
2022-11-16T11:30:02.134Z,1005.1
2022-11-16T11:31:02.105Z,1005.1
2022-11-16T11:32:02.124Z,1005.1
2022-11-16T11:33:02.064Z,1005
2022-11-16T11:34:02.002Z,1005
2022-11-16T11:35:01.976Z,1005.1
2022-11-16T11:36:01.892Z,1005
2022-11-16T11:37:01.851Z,1005
2022-11-16T11:38:08.844Z,1005.1
2022-11-16T11:39:02.834Z,1005.1
2022-11-16T11:40:02.664Z,1005.1
2022-11-16T11:41:02.592Z,1005
2022-11-16T11:42:02.644Z,1005
2022-11-16T11:43:02.540Z,1005.1
2022-11-16T11:44:02.450Z,1005.1
2022-11-16T11:45:02.389Z,1005.1
2022-11-16T11:46:02.327Z,1005
2022-11-16T11:47:58.862Z,1005
2022-11-16T11:48:02.212Z,1005
2022-11-16T11:49:02.146Z,1005
2022-11-16T11:50:02.176Z,1005
2022-11-16T11:51:02.112Z,1005
2022-11-16T11:52:02.045Z,1005
2022-11-16T11:53:01.999Z,1004.9
2022-11-16T11:54:01.967Z,1005
2022-11-16T11:55:01.906Z,1005
2022-11-16T11:56:01.800Z,1005
2022-11-16T11:57:01.725Z,1005
2022-11-16T11:58:02.711Z,1005
2022-11-16T11:59:02.773Z,1005
2022-11-16T12:00:02.727Z,1005
2022-11-16T12:01:02.770Z,1005
2022-11-16T12:02:02.629Z,1005.1
2022-11-16T12:03:02.804Z,1005
2022-11-16T12:04:02.611Z,1004.9
2022-11-16T12:05:02.567Z,1005
2022-11-16T12:06:02.503Z,1005
2022-11-16T12:07:02.633Z,1005
2022-11-16T12:08:02.452Z,1004.9
2022-11-16T12:09:02.441Z,1004.9
2022-11-16T12:10:02.362Z,1004.9
2022-11-16T12:11:02.354Z,1004.9
2022-11-16T12:12:02.264Z,1004.9
2022-11-16T12:13:02.201Z,1004.9
2022-11-16T12:14:02.149Z,1005
2022-11-16T12:15:02.098Z,1005
2022-11-16T12:16:02.042Z,1004.9
2022-11-16T12:17:01.860Z,1004.9
2022-11-16T12:18:01.825Z,1005
2022-11-16T12:19:01.767Z,1004.9
2022-11-16T12:20:02.693Z,1004.8
2022-11-16T12:21:02.662Z,1004.9
2022-11-16T12:22:02.713Z,1004.8
2022-11-16T12:23:04.920Z,1004.9
2022-11-16T12:24:02.740Z,1004.8
2022-11-16T12:25:02.700Z,1004.8
2022-11-16T12:26:02.684Z,1004.8
2022-11-16T12:27:02.677Z,1004.8
2022-11-16T12:28:02.657Z,1004.8
2022-11-16T12:29:02.672Z,1004.8
2022-11-16T12:30:02.695Z,1004.8
2022-11-16T12:31:02.599Z,1004.8
2022-11-16T12:32:02.503Z,1004.8
2022-11-16T12:33:02.450Z,1004.8